sensor_id;sensor_type;location;lat;lon;timestamp;P1;durP1;ratioP1;P2;durP2;ratioP2
47715;SDS011;33476;50.984;3.538;2024-01-30T00:00:31;3.60;;;2.67;;
47715;SDS011;33476;50.984;3.538;2024-01-30T00:02:56;5.50;;;3.10;;
47715;SDS011;33476;50.984;3.538;2024-01-30T00:05:22;5.00;;;3.00;;
47715;SDS011;33476;50.984;3.538;2024-01-30T00:07:47;7.18;;;2.97;;
47715;SDS011;33476;50.984;3.538;2024-01-30T00:10:13;2.90;;;2.60;;
47715;SDS011;33476;50.984;3.538;2024-01-30T00:12:38;6.07;;;3.00;;
47715;SDS011;33476;50.984;3.538;2024-01-30T00:15:04;5.65;;;2.72;;
47715;SDS011;33476;50.984;3.538;2024-01-30T00:17:30;4.95;;;3.00;;
47715;SDS011;33476;50.984;3.538;2024-01-30T00:19:55;4.82;;;2.83;;
47715;SDS011;33476;50.984;3.538;2024-01-30T00:22:21;4.88;;;3.03;;
47715;SDS011;33476;50.984;3.538;2024-01-30T00:24:46;7.82;;;3.10;;
47715;SDS011;33476;50.984;3.538;2024-01-30T00:27:12;4.60;;;2.88;;
47715;SDS011;33476;50.984;3.538;2024-01-30T00:29:37;4.18;;;2.88;;
47715;SDS011;33476;50.984;3.538;2024-01-30T00:32:03;6.22;;;2.75;;
47715;SDS011;33476;50.984;3.538;2024-01-30T00:34:28;3.97;;;2.85;;
47715;SDS011;33476;50.984;3.538;2024-01-30T00:36:53;7.57;;;2.88;;
47715;SDS011;33476;50.984;3.538;2024-01-30T00:39:19;5.85;;;3.22;;
47715;SDS011;33476;50.984;3.538;2024-01-30T00:41:44;9.18;;;3.17;;
47715;SDS011;33476;50.984;3.538;2024-01-30T00:44:10;4.90;;;2.85;;
47715;SDS011;33476;50.984;3.538;2024-01-30T00:46:35;5.65;;;3.28;;
47715;SDS011;33476;50.984;3.538;2024-01-30T00:49:01;5.97;;;3.17;;
47715;SDS011;33476;50.984;3.538;2024-01-30T00:51:26;5.90;;;3.08;;
47715;SDS011;33476;50.984;3.538;2024-01-30T00:53:54;5.85;;;3.13;;
47715;SDS011;33476;50.984;3.538;2024-01-30T00:56:20;5.30;;;3.20;;
47715;SDS011;33476;50.984;3.538;2024-01-30T00:58:48;4.95;;;2.70;;
47715;SDS011;33476;50.984;3.538;2024-01-30T01:01:13;4.88;;;3.03;;
47715;SDS011;33476;50.984;3.538;2024-01-30T01:03:41;5.80;;;3.03;;
47715;SDS011;33476;50.984;3.538;2024-01-30T01:06:08;6.72;;;3.28;;
47715;SDS011;33476;50.984;3.538;2024-01-30T01:08:34;5.63;;;3.22;;
47715;SDS011;33476;50.984;3.538;2024-01-30T01:10:59;7.10;;;3.22;;
47715;SDS011;33476;50.984;3.538;2024-01-30T01:13:24;7.30;;;3.15;;
47715;SDS011;33476;50.984;3.538;2024-01-30T01:15:50;7.30;;;3.53;;
47715;SDS011;33476;50.984;3.538;2024-01-30T01:18:15;5.22;;;3.22;;
47715;SDS011;33476;50.984;3.538;2024-01-30T01:20:40;5.30;;;2.95;;
47715;SDS011;33476;50.984;3.538;2024-01-30T01:23:06;7.13;;;2.72;;
47715;SDS011;33476;50.984;3.538;2024-01-30T01:25:31;5.28;;;3.33;;
47715;SDS011;33476;50.984;3.538;2024-01-30T01:27:57;4.80;;;2.72;;
47715;SDS011;33476;50.984;3.538;2024-01-30T01:30:22;5.78;;;3.38;;
47715;SDS011;33476;50.984;3.538;2024-01-30T01:32:48;5.53;;;3.05;;
47715;SDS011;33476;50.984;3.538;2024-01-30T01:35:22;6.18;;;3.42;;
47715;SDS011;33476;50.984;3.538;2024-01-30T01:37:49;4.35;;;2.95;;
47715;SDS011;33476;50.984;3.538;2024-01-30T01:40:20;6.45;;;3.63;;
47715;SDS011;33476;50.984;3.538;2024-01-30T01:42:46;6.05;;;3.67;;
47715;SDS011;33476;50.984;3.538;2024-01-30T01:45:12;6.30;;;3.70;;
47715;SDS011;33476;50.984;3.538;2024-01-30T01:47:37;6.82;;;3.80;;
47715;SDS011;33476;50.984;3.538;2024-01-30T01:50:03;5.50;;;3.03;;
47715;SDS011;33476;50.984;3.538;2024-01-30T01:52:29;7.53;;;3.13;;
47715;SDS011;33476;50.984;3.538;2024-01-30T01:54:54;5.65;;;3.40;;
47715;SDS011;33476;50.984;3.538;2024-01-30T01:57:20;8.88;;;3.47;;
47715;SDS011;33476;50.984;3.538;2024-01-30T01:59:45;6.05;;;3.88;;
47715;SDS011;33476;50.984;3.538;2024-01-30T02:02:11;6.47;;;3.75;;
47715;SDS011;33476;50.984;3.538;2024-01-30T02:04:40;3.83;;;3.20;;
47715;SDS011;33476;50.984;3.538;2024-01-30T02:07:06;4.47;;;3.28;;
47715;SDS011;33476;50.984;3.538;2024-01-30T02:09:32;5.32;;;3.20;;
47715;SDS011;33476;50.984;3.538;2024-01-30T02:11:57;5.57;;;3.25;;
47715;SDS011;33476;50.984;3.538;2024-01-30T02:14:23;4.55;;;3.33;;
47715;SDS011;33476;50.984;3.538;2024-01-30T02:16:48;4.43;;;3.15;;
47715;SDS011;33476;50.984;3.538;2024-01-30T02:19:14;6.90;;;3.58;;
47715;SDS011;33476;50.984;3.538;2024-01-30T02:21:39;5.90;;;3.47;;
47715;SDS011;33476;50.984;3.538;2024-01-30T02:24:04;6.93;;;3.50;;
47715;SDS011;33476;50.984;3.538;2024-01-30T02:26:30;7.78;;;3.13;;
47715;SDS011;33476;50.984;3.538;2024-01-30T02:28:56;6.30;;;3.60;;
47715;SDS011;33476;50.984;3.538;2024-01-30T02:31:21;6.63;;;3.47;;
47715;SDS011;33476;50.984;3.538;2024-01-30T02:33:47;6.05;;;3.03;;
47715;SDS011;33476;50.984;3.538;2024-01-30T02:36:12;6.15;;;3.55;;
47715;SDS011;33476;50.984;3.538;2024-01-30T02:38:37;6.13;;;3.70;;
47715;SDS011;33476;50.984;3.538;2024-01-30T02:41:03;6.18;;;3.55;;
47715;SDS011;33476;50.984;3.538;2024-01-30T02:43:28;5.50;;;3.40;;
47715;SDS011;33476;50.984;3.538;2024-01-30T02:45:54;5.93;;;3.42;;
47715;SDS011;33476;50.984;3.538;2024-01-30T02:48:19;7.90;;;3.70;;
47715;SDS011;33476;50.984;3.538;2024-01-30T02:50:44;8.65;;;3.35;;
47715;SDS011;33476;50.984;3.538;2024-01-30T02:53:11;7.80;;;3.35;;
47715;SDS011;33476;50.984;3.538;2024-01-30T02:55:36;5.75;;;3.30;;
47715;SDS011;33476;50.984;3.538;2024-01-30T02:58:01;9.82;;;3.42;;
47715;SDS011;33476;50.984;3.538;2024-01-30T03:00:27;5.93;;;3.47;;
47715;SDS011;33476;50.984;3.538;2024-01-30T03:02:52;5.07;;;3.45;;
47715;SDS011;33476;50.984;3.538;2024-01-30T03:05:17;5.70;;;3.70;;
47715;SDS011;33476;50.984;3.538;2024-01-30T03:07:43;6.85;;;3.78;;
47715;SDS011;33476;50.984;3.538;2024-01-30T03:10:08;5.63;;;2.97;;
47715;SDS011;33476;50.984;3.538;2024-01-30T03:12:34;5.40;;;3.58;;
47715;SDS011;33476;50.984;3.538;2024-01-30T03:14:59;7.60;;;3.38;;
47715;SDS011;33476;50.984;3.538;2024-01-30T03:17:24;5.13;;;3.53;;
47715;SDS011;33476;50.984;3.538;2024-01-30T03:19:50;4.68;;;3.35;;
47715;SDS011;33476;50.984;3.538;2024-01-30T03:22:16;5.53;;;3.55;;
47715;SDS011;33476;50.984;3.538;2024-01-30T03:24:42;6.30;;;3.70;;
47715;SDS011;33476;50.984;3.538;2024-01-30T03:27:07;5.72;;;3.05;;
47715;SDS011;33476;50.984;3.538;2024-01-30T03:29:33;9.02;;;3.60;;
47715;SDS011;33476;50.984;3.538;2024-01-30T03:31:59;9.60;;;3.72;;
47715;SDS011;33476;50.984;3.538;2024-01-30T03:34:24;7.55;;;3.67;;
47715;SDS011;33476;50.984;3.538;2024-01-30T03:36:49;7.70;;;3.85;;
47715;SDS011;33476;50.984;3.538;2024-01-30T03:39:15;7.90;;;3.60;;
47715;SDS011;33476;50.984;3.538;2024-01-30T03:41:43;6.05;;;3.65;;
47715;SDS011;33476;50.984;3.538;2024-01-30T03:44:09;7.70;;;3.95;;
47715;SDS011;33476;50.984;3.538;2024-01-30T03:46:34;5.18;;;3.58;;
47715;SDS011;33476;50.984;3.538;2024-01-30T03:49:00;8.48;;;4.15;;
47715;SDS011;33476;50.984;3.538;2024-01-30T03:51:25;9.05;;;3.90;;
47715;SDS011;33476;50.984;3.538;2024-01-30T03:53:50;8.90;;;3.88;;
47715;SDS011;33476;50.984;3.538;2024-01-30T03:56:16;5.32;;;3.88;;
47715;SDS011;33476;50.984;3.538;2024-01-30T03:58:41;8.60;;;3.60;;
47715;SDS011;33476;50.984;3.538;2024-01-30T04:01:07;6.63;;;3.83;;
47715;SDS011;33476;50.984;3.538;2024-01-30T04:03:32;7.55;;;3.63;;
47715;SDS011;33476;50.984;3.538;2024-01-30T04:05:58;5.60;;;3.30;;
47715;SDS011;33476;50.984;3.538;2024-01-30T04:08:23;6.93;;;3.90;;
47715;SDS011;33476;50.984;3.538;2024-01-30T04:10:49;9.93;;;4.07;;
47715;SDS011;33476;50.984;3.538;2024-01-30T04:13:14;5.85;;;3.47;;
47715;SDS011;33476;50.984;3.538;2024-01-30T04:15:39;8.95;;;3.67;;
47715;SDS011;33476;50.984;3.538;2024-01-30T04:18:05;6.38;;;3.63;;
47715;SDS011;33476;50.984;3.538;2024-01-30T04:20:31;6.05;;;3.28;;
47715;SDS011;33476;50.984;3.538;2024-01-30T04:22:56;7.95;;;3.95;;
47715;SDS011;33476;50.984;3.538;2024-01-30T04:25:21;5.88;;;3.50;;
47715;SDS011;33476;50.984;3.538;2024-01-30T04:27:47;4.75;;;3.13;;
47715;SDS011;33476;50.984;3.538;2024-01-30T04:30:13;5.60;;;3.20;;
47715;SDS011;33476;50.984;3.538;2024-01-30T04:32:38;9.85;;;3.95;;
47715;SDS011;33476;50.984;3.538;2024-01-30T04:35:04;6.43;;;3.53;;
47715;SDS011;33476;50.984;3.538;2024-01-30T04:37:29;5.45;;;3.65;;
47715;SDS011;33476;50.984;3.538;2024-01-30T04:39:55;6.13;;;3.60;;
47715;SDS011;33476;50.984;3.538;2024-01-30T04:42:20;8.65;;;3.72;;
47715;SDS011;33476;50.984;3.538;2024-01-30T04:44:46;7.90;;;3.80;;
47715;SDS011;33476;50.984;3.538;2024-01-30T04:47:11;6.63;;;3.15;;
47715;SDS011;33476;50.984;3.538;2024-01-30T04:49:39;5.80;;;3.78;;
47715;SDS011;33476;50.984;3.538;2024-01-30T04:52:05;6.15;;;3.65;;
47715;SDS011;33476;50.984;3.538;2024-01-30T04:54:31;6.13;;;3.40;;
47715;SDS011;33476;50.984;3.538;2024-01-30T04:56:56;7.63;;;3.42;;
47715;SDS011;33476;50.984;3.538;2024-01-30T04:59:22;4.57;;;3.10;;
47715;SDS011;33476;50.984;3.538;2024-01-30T05:01:47;8.05;;;3.83;;
47715;SDS011;33476;50.984;3.538;2024-01-30T05:04:12;8.02;;;3.72;;
47715;SDS011;33476;50.984;3.538;2024-01-30T05:06:38;6.97;;;3.35;;
47715;SDS011;33476;50.984;3.538;2024-01-30T05:09:03;6.50;;;3.50;;
47715;SDS011;33476;50.984;3.538;2024-01-30T05:11:29;7.50;;;3.50;;
47715;SDS011;33476;50.984;3.538;2024-01-30T05:13:55;8.57;;;3.70;;
47715;SDS011;33476;50.984;3.538;2024-01-30T05:16:20;6.80;;;3.47;;
47715;SDS011;33476;50.984;3.538;2024-01-30T05:18:46;6.80;;;3.42;;
47715;SDS011;33476;50.984;3.538;2024-01-30T05:21:11;9.00;;;3.67;;
47715;SDS011;33476;50.984;3.538;2024-01-30T05:23:36;4.32;;;3.60;;
47715;SDS011;33476;50.984;3.538;2024-01-30T05:26:02;7.22;;;3.78;;
47715;SDS011;33476;50.984;3.538;2024-01-30T05:28:28;10.82;;;3.95;;
47715;SDS011;33476;50.984;3.538;2024-01-30T05:30:54;6.35;;;3.63;;
47715;SDS011;33476;50.984;3.538;2024-01-30T05:33:20;7.78;;;3.72;;
47715;SDS011;33476;50.984;3.538;2024-01-30T05:35:46;6.43;;;3.83;;
47715;SDS011;33476;50.984;3.538;2024-01-30T05:38:11;5.40;;;2.85;;
47715;SDS011;33476;50.984;3.538;2024-01-30T05:40:37;9.48;;;3.78;;
47715;SDS011;33476;50.984;3.538;2024-01-30T05:43:03;7.38;;;3.50;;
47715;SDS011;33476;50.984;3.538;2024-01-30T05:45:28;6.38;;;4.00;;
47715;SDS011;33476;50.984;3.538;2024-01-30T05:47:53;11.13;;;4.43;;
47715;SDS011;33476;50.984;3.538;2024-01-30T05:50:19;6.22;;;3.38;;
47715;SDS011;33476;50.984;3.538;2024-01-30T05:52:45;7.65;;;3.78;;
47715;SDS011;33476;50.984;3.538;2024-01-30T05:55:11;6.25;;;3.72;;
47715;SDS011;33476;50.984;3.538;2024-01-30T05:57:37;7.40;;;4.18;;
47715;SDS011;33476;50.984;3.538;2024-01-30T06:00:03;7.13;;;3.53;;
47715;SDS011;33476;50.984;3.538;2024-01-30T06:02:32;7.27;;;3.90;;
47715;SDS011;33476;50.984;3.538;2024-01-30T06:04:58;7.55;;;3.80;;
47715;SDS011;33476;50.984;3.538;2024-01-30T06:07:23;6.25;;;3.90;;
47715;SDS011;33476;50.984;3.538;2024-01-30T06:09:49;5.45;;;3.30;;
47715;SDS011;33476;50.984;3.538;2024-01-30T06:12:14;5.10;;;3.40;;
47715;SDS011;33476;50.984;3.538;2024-01-30T06:14:40;7.35;;;3.58;;
47715;SDS011;33476;50.984;3.538;2024-01-30T06:17:07;5.32;;;3.63;;
47715;SDS011;33476;50.984;3.538;2024-01-30T06:19:33;6.57;;;3.88;;
47715;SDS011;33476;50.984;3.538;2024-01-30T06:21:58;7.45;;;3.58;;
47715;SDS011;33476;50.984;3.538;2024-01-30T06:24:24;9.88;;;3.90;;
47715;SDS011;33476;50.984;3.538;2024-01-30T06:26:49;9.50;;;3.90;;
47715;SDS011;33476;50.984;3.538;2024-01-30T06:29:14;6.30;;;3.50;;
47715;SDS011;33476;50.984;3.538;2024-01-30T06:31:41;7.85;;;3.97;;
47715;SDS011;33476;50.984;3.538;2024-01-30T06:34:08;6.65;;;3.58;;
47715;SDS011;33476;50.984;3.538;2024-01-30T06:36:34;6.63;;;3.40;;
47715;SDS011;33476;50.984;3.538;2024-01-30T06:38:59;10.05;;;3.60;;
47715;SDS011;33476;50.984;3.538;2024-01-30T06:41:25;8.77;;;3.75;;
47715;SDS011;33476;50.984;3.538;2024-01-30T06:43:50;10.70;;;3.40;;
47715;SDS011;33476;50.984;3.538;2024-01-30T06:46:15;8.65;;;3.95;;
47715;SDS011;33476;50.984;3.538;2024-01-30T06:48:41;6.03;;;3.78;;
47715;SDS011;33476;50.984;3.538;2024-01-30T06:51:08;5.85;;;3.42;;
47715;SDS011;33476;50.984;3.538;2024-01-30T06:53:34;8.30;;;3.63;;
47715;SDS011;33476;50.984;3.538;2024-01-30T06:56:00;5.65;;;3.17;;
47715;SDS011;33476;50.984;3.538;2024-01-30T06:58:25;6.75;;;3.58;;
47715;SDS011;33476;50.984;3.538;2024-01-30T07:00:51;5.30;;;3.13;;
47715;SDS011;33476;50.984;3.538;2024-01-30T07:03:16;9.98;;;3.60;;
47715;SDS011;33476;50.984;3.538;2024-01-30T07:05:42;6.45;;;3.22;;
47715;SDS011;33476;50.984;3.538;2024-01-30T07:08:07;5.53;;;3.10;;
47715;SDS011;33476;50.984;3.538;2024-01-30T07:10:33;7.43;;;3.33;;
47715;SDS011;33476;50.984;3.538;2024-01-30T07:13:00;6.75;;;3.67;;
47715;SDS011;33476;50.984;3.538;2024-01-30T07:15:25;8.35;;;3.85;;
47715;SDS011;33476;50.984;3.538;2024-01-30T07:17:51;12.25;;;4.13;;
47715;SDS011;33476;50.984;3.538;2024-01-30T07:20:16;9.75;;;3.80;;
47715;SDS011;33476;50.984;3.538;2024-01-30T07:22:42;9.32;;;3.45;;
47715;SDS011;33476;50.984;3.538;2024-01-30T07:25:09;9.50;;;4.00;;
47715;SDS011;33476;50.984;3.538;2024-01-30T07:27:34;8.88;;;4.15;;
47715;SDS011;33476;50.984;3.538;2024-01-30T07:29:59;7.10;;;3.83;;
47715;SDS011;33476;50.984;3.538;2024-01-30T07:32:25;7.47;;;3.88;;
47715;SDS011;33476;50.984;3.538;2024-01-30T07:34:50;6.47;;;3.78;;
47715;SDS011;33476;50.984;3.538;2024-01-30T07:37:15;6.25;;;3.88;;
47715;SDS011;33476;50.984;3.538;2024-01-30T07:39:41;9.60;;;4.03;;
47715;SDS011;33476;50.984;3.538;2024-01-30T07:42:07;8.27;;;3.88;;
47715;SDS011;33476;50.984;3.538;2024-01-30T07:44:33;9.35;;;4.32;;
47715;SDS011;33476;50.984;3.538;2024-01-30T07:46:59;8.00;;;3.90;;
47715;SDS011;33476;50.984;3.538;2024-01-30T07:49:24;8.05;;;3.83;;
47715;SDS011;33476;50.984;3.538;2024-01-30T07:51:50;5.78;;;3.80;;
47715;SDS011;33476;50.984;3.538;2024-01-30T07:54:15;8.32;;;3.95;;
47715;SDS011;33476;50.984;3.538;2024-01-30T07:56:41;9.98;;;4.13;;
47715;SDS011;33476;50.984;3.538;2024-01-30T07:59:09;12.25;;;4.55;;
47715;SDS011;33476;50.984;3.538;2024-01-30T08:01:36;10.38;;;4.10;;
47715;SDS011;33476;50.984;3.538;2024-01-30T08:04:01;8.60;;;4.35;;
47715;SDS011;33476;50.984;3.538;2024-01-30T08:06:26;7.25;;;4.20;;
47715;SDS011;33476;50.984;3.538;2024-01-30T08:08:52;7.00;;;4.25;;
47715;SDS011;33476;50.984;3.538;2024-01-30T08:11:19;7.07;;;3.88;;
47715;SDS011;33476;50.984;3.538;2024-01-30T08:13:45;11.82;;;4.25;;
47715;SDS011;33476;50.984;3.538;2024-01-30T08:16:11;8.35;;;4.28;;
47715;SDS011;33476;50.984;3.538;2024-01-30T08:18:36;7.75;;;4.18;;
47715;SDS011;33476;50.984;3.538;2024-01-30T08:21:01;10.93;;;4.47;;
47715;SDS011;33476;50.984;3.538;2024-01-30T08:23:27;10.10;;;4.50;;
47715;SDS011;33476;50.984;3.538;2024-01-30T08:25:52;8.50;;;3.80;;
47715;SDS011;33476;50.984;3.538;2024-01-30T08:28:17;8.70;;;4.53;;
47715;SDS011;33476;50.984;3.538;2024-01-30T08:30:43;17.35;;;4.63;;
47715;SDS011;33476;50.984;3.538;2024-01-30T08:33:08;13.25;;;4.55;;
47715;SDS011;33476;50.984;3.538;2024-01-30T08:35:34;14.27;;;4.30;;
47715;SDS011;33476;50.984;3.538;2024-01-30T08:37:59;6.90;;;3.78;;
47715;SDS011;33476;50.984;3.538;2024-01-30T08:40:25;10.82;;;4.80;;
47715;SDS011;33476;50.984;3.538;2024-01-30T08:42:50;13.70;;;3.67;;
47715;SDS011;33476;50.984;3.538;2024-01-30T08:45:16;11.95;;;3.53;;
47715;SDS011;33476;50.984;3.538;2024-01-30T08:47:41;7.45;;;2.85;;
47715;SDS011;33476;50.984;3.538;2024-01-30T08:50:07;7.55;;;2.15;;
47715;SDS011;33476;50.984;3.538;2024-01-30T08:52:32;8.45;;;2.22;;
47715;SDS011;33476;50.984;3.538;2024-01-30T08:54:59;9.25;;;2.15;;
47715;SDS011;33476;50.984;3.538;2024-01-30T08:57:25;8.73;;;1.90;;
47715;SDS011;33476;50.984;3.538;2024-01-30T08:59:53;7.35;;;1.50;;
47715;SDS011;33476;50.984;3.538;2024-01-30T09:02:19;10.60;;;2.15;;
47715;SDS011;33476;50.984;3.538;2024-01-30T09:04:44;6.63;;;1.70;;
47715;SDS011;33476;50.984;3.538;2024-01-30T09:07:10;8.07;;;1.08;;
47715;SDS011;33476;50.984;3.538;2024-01-30T09:09:35;8.38;;;1.05;;
47715;SDS011;33476;50.984;3.538;2024-01-30T09:12:02;8.80;;;0.50;;
47715;SDS011;33476;50.984;3.538;2024-01-30T09:14:32;12.20;;;0.80;;
47715;SDS011;33476;50.984;3.538;2024-01-30T09:16:57;9.05;;;0.80;;
47715;SDS011;33476;50.984;3.538;2024-01-30T09:19:22;4.10;;;0.47;;
47715;SDS011;33476;50.984;3.538;2024-01-30T09:21:48;4.65;;;0.60;;
47715;SDS011;33476;50.984;3.538;2024-01-30T09:24:13;2.53;;;0.55;;
47715;SDS011;33476;50.984;3.538;2024-01-30T09:26:39;5.63;;;0.88;;
47715;SDS011;33476;50.984;3.538;2024-01-30T09:29:04;6.10;;;0.85;;
47715;SDS011;33476;50.984;3.538;2024-01-30T09:31:29;4.15;;;0.30;;
47715;SDS011;33476;50.984;3.538;2024-01-30T09:33:55;7.63;;;0.75;;
47715;SDS011;33476;50.984;3.538;2024-01-30T09:36:20;2.67;;;0.20;;
47715;SDS011;33476;50.984;3.538;2024-01-30T09:38:46;4.45;;;0.45;;
47715;SDS011;33476;50.984;3.538;2024-01-30T09:41:11;6.00;;;0.28;;
47715;SDS011;33476;50.984;3.538;2024-01-30T09:43:38;4.57;;;0.40;;
47715;SDS011;33476;50.984;3.538;2024-01-30T09:46:05;3.40;;;0.28;;
47715;SDS011;33476;50.984;3.538;2024-01-30T09:48:33;5.40;;;0.60;;
47715;SDS011;33476;50.984;3.538;2024-01-30T09:50:59;4.43;;;0.43;;
47715;SDS011;33476;50.984;3.538;2024-01-30T09:53:24;3.75;;;0.43;;
47715;SDS011;33476;50.984;3.538;2024-01-30T09:55:50;4.82;;;0.30;;
47715;SDS011;33476;50.984;3.538;2024-01-30T09:58:17;2.38;;;0.22;;
47715;SDS011;33476;50.984;3.538;2024-01-30T10:00:42;2.00;;;0.20;;
47715;SDS011;33476;50.984;3.538;2024-01-30T10:03:08;8.32;;;0.32;;
47715;SDS011;33476;50.984;3.538;2024-01-30T10:05:34;25.58;;;0.90;;
47715;SDS011;33476;50.984;3.538;2024-01-30T10:08:05;1.73;;;0.28;;
47715;SDS011;33476;50.984;3.538;2024-01-30T10:10:31;4.38;;;0.20;;
47715;SDS011;33476;50.984;3.538;2024-01-30T10:12:56;3.40;;;0.10;;
47715;SDS011;33476;50.984;3.538;2024-01-30T10:15:22;2.80;;;0.10;;
47715;SDS011;33476;50.984;3.538;2024-01-30T10:17:47;5.47;;;0.10;;
47715;SDS011;33476;50.984;3.538;2024-01-30T10:20:12;3.35;;;0.20;;
47715;SDS011;33476;50.984;3.538;2024-01-30T10:22:39;3.53;;;0.15;;
47715;SDS011;33476;50.984;3.538;2024-01-30T10:25:07;3.40;;;0.15;;
47715;SDS011;33476;50.984;3.538;2024-01-30T10:27:33;3.08;;;0.20;;
47715;SDS011;33476;50.984;3.538;2024-01-30T10:29:58;4.53;;;0.50;;
47715;SDS011;33476;50.984;3.538;2024-01-30T10:32:23;8.07;;;0.40;;
47715;SDS011;33476;50.984;3.538;2024-01-30T10:34:50;6.15;;;0.20;;
47715;SDS011;33476;50.984;3.538;2024-01-30T10:37:15;2.60;;;0.20;;
47715;SDS011;33476;50.984;3.538;2024-01-30T10:39:42;2.03;;;0.20;;
47715;SDS011;33476;50.984;3.538;2024-01-30T10:42:12;3.80;;;0.43;;
47715;SDS011;33476;50.984;3.538;2024-01-30T10:47:43;3.50;;;0.30;;
47715;SDS011;33476;50.984;3.538;2024-01-30T10:50:13;3.53;;;0.15;;
47715;SDS011;33476;50.984;3.538;2024-01-30T10:52:39;4.35;;;0.30;;
47715;SDS011;33476;50.984;3.538;2024-01-30T10:55:07;8.57;;;0.60;;
47715;SDS011;33476;50.984;3.538;2024-01-30T10:57:36;4.80;;;0.50;;
47715;SDS011;33476;50.984;3.538;2024-01-30T11:00:06;3.13;;;0.30;;
47715;SDS011;33476;50.984;3.538;2024-01-30T11:02:40;5.45;;;0.30;;
47715;SDS011;33476;50.984;3.538;2024-01-30T11:05:08;3.60;;;0.20;;
47715;SDS011;33476;50.984;3.538;2024-01-30T11:07:34;2.17;;;0.20;;
47715;SDS011;33476;50.984;3.538;2024-01-30T11:12:28;3.33;;;0.30;;
47715;SDS011;33476;50.984;3.538;2024-01-30T11:22:56;2.08;;;0.20;;
47715;SDS011;33476;50.984;3.538;2024-01-30T11:25:22;4.82;;;0.47;;
47715;SDS011;33476;50.984;3.538;2024-01-30T11:27:49;2.90;;;0.40;;
47715;SDS011;33476;50.984;3.538;2024-01-30T11:30:25;1.50;;;0.10;;
47715;SDS011;33476;50.984;3.538;2024-01-30T11:35:35;4.70;;;0.10;;
47715;SDS011;33476;50.984;3.538;2024-01-30T11:38:02;5.85;;;0.20;;
47715;SDS011;33476;50.984;3.538;2024-01-30T11:40:29;1.45;;;0.15;;
47715;SDS011;33476;50.984;3.538;2024-01-30T11:42:55;2.60;;;0.10;;
47715;SDS011;33476;50.984;3.538;2024-01-30T11:45:21;5.57;;;0.20;;
47715;SDS011;33476;50.984;3.538;2024-01-30T11:47:47;1.27;;;0.13;;
47715;SDS011;33476;50.984;3.538;2024-01-30T11:50:12;3.97;;;0.10;;
47715;SDS011;33476;50.984;3.538;2024-01-30T11:52:39;3.00;;;0.10;;
47715;SDS011;33476;50.984;3.538;2024-01-30T11:55:05;6.72;;;0.32;;
47715;SDS011;33476;50.984;3.538;2024-01-30T11:57:30;4.70;;;0.10;;
47715;SDS011;33476;50.984;3.538;2024-01-30T11:59:56;10.27;;;0.35;;
47715;SDS011;33476;50.984;3.538;2024-01-30T12:02:21;2.80;;;0.10;;
47715;SDS011;33476;50.984;3.538;2024-01-30T12:04:47;1.48;;;0.10;;
47715;SDS011;33476;50.984;3.538;2024-01-30T12:07:12;2.22;;;0.10;;
47715;SDS011;33476;50.984;3.538;2024-01-30T12:09:41;5.65;;;0.40;;
47715;SDS011;33476;50.984;3.538;2024-01-30T12:12:07;4.85;;;0.75;;
47715;SDS011;33476;50.984;3.538;2024-01-30T12:14:36;7.00;;;0.52;;
47715;SDS011;33476;50.984;3.538;2024-01-30T12:17:04;5.00;;;0.10;;
47715;SDS011;33476;50.984;3.538;2024-01-30T12:19:29;1.58;;;0.10;;
47715;SDS011;33476;50.984;3.538;2024-01-30T12:21:56;4.28;;;0.13;;
47715;SDS011;33476;50.984;3.538;2024-01-30T12:24:24;3.08;;;0.17;;
47715;SDS011;33476;50.984;3.538;2024-01-30T12:26:50;2.78;;;0.20;;
47715;SDS011;33476;50.984;3.538;2024-01-30T12:29:16;1.73;;;0.20;;
47715;SDS011;33476;50.984;3.538;2024-01-30T12:31:42;1.92;;;0.15;;
47715;SDS011;33476;50.984;3.538;2024-01-30T12:34:08;0.80;;;0.10;;
47715;SDS011;33476;50.984;3.538;2024-01-30T12:36:34;3.03;;;0.20;;
47715;SDS011;33476;50.984;3.538;2024-01-30T12:39:00;1.38;;;0.10;;
47715;SDS011;33476;50.984;3.538;2024-01-30T12:41:26;3.95;;;0.10;;
47715;SDS011;33476;50.984;3.538;2024-01-30T12:43:54;1.20;;;0.10;;
47715;SDS011;33476;50.984;3.538;2024-01-30T12:46:25;3.45;;;0.20;;
47715;SDS011;33476;50.984;3.538;2024-01-30T12:51:18;3.22;;;0.22;;
47715;SDS011;33476;50.984;3.538;2024-01-30T12:53:43;3.30;;;0.40;;
47715;SDS011;33476;50.984;3.538;2024-01-30T12:56:09;7.93;;;0.17;;
47715;SDS011;33476;50.984;3.538;2024-01-30T12:58:34;3.75;;;0.10;;
47715;SDS011;33476;50.984;3.538;2024-01-30T13:01:00;2.63;;;0.30;;
47715;SDS011;33476;50.984;3.538;2024-01-30T13:03:25;8.57;;;0.30;;
47715;SDS011;33476;50.984;3.538;2024-01-30T13:05:51;3.97;;;0.20;;
47715;SDS011;33476;50.984;3.538;2024-01-30T13:08:17;2.33;;;0.20;;
47715;SDS011;33476;50.984;3.538;2024-01-30T13:10:42;2.10;;;0.10;;
47715;SDS011;33476;50.984;3.538;2024-01-30T13:13:07;1.33;;;0.20;;
47715;SDS011;33476;50.984;3.538;2024-01-30T13:15:34;1.90;;;0.25;;
47715;SDS011;33476;50.984;3.538;2024-01-30T13:17:59;1.77;;;0.17;;
47715;SDS011;33476;50.984;3.538;2024-01-30T13:20:25;1.80;;;0.20;;
47715;SDS011;33476;50.984;3.538;2024-01-30T13:22:50;4.28;;;0.22;;
47715;SDS011;33476;50.984;3.538;2024-01-30T13:25:16;3.60;;;0.40;;
47715;SDS011;33476;50.984;3.538;2024-01-30T13:27:41;5.43;;;0.50;;
47715;SDS011;33476;50.984;3.538;2024-01-30T13:30:07;3.08;;;0.38;;
47715;SDS011;33476;50.984;3.538;2024-01-30T13:32:36;2.90;;;0.28;;
47715;SDS011;33476;50.984;3.538;2024-01-30T13:35:02;2.35;;;0.10;;
47715;SDS011;33476;50.984;3.538;2024-01-30T13:37:27;9.50;;;0.75;;
47715;SDS011;33476;50.984;3.538;2024-01-30T13:39:53;5.97;;;0.43;;
47715;SDS011;33476;50.984;3.538;2024-01-30T13:42:18;1.70;;;0.15;;
47715;SDS011;33476;50.984;3.538;2024-01-30T13:44:44;3.03;;;0.32;;
47715;SDS011;33476;50.984;3.538;2024-01-30T13:47:09;4.38;;;0.85;;
47715;SDS011;33476;50.984;3.538;2024-01-30T13:49:35;4.70;;;0.10;;
47715;SDS011;33476;50.984;3.538;2024-01-30T13:52:00;7.47;;;0.45;;
47715;SDS011;33476;50.984;3.538;2024-01-30T13:54:26;3.70;;;0.30;;
47715;SDS011;33476;50.984;3.538;2024-01-30T13:56:51;4.88;;;0.40;;
47715;SDS011;33476;50.984;3.538;2024-01-30T13:59:17;3.03;;;0.38;;
47715;SDS011;33476;50.984;3.538;2024-01-30T14:01:48;2.22;;;0.20;;
47715;SDS011;33476;50.984;3.538;2024-01-30T14:04:14;9.20;;;0.20;;
47715;SDS011;33476;50.984;3.538;2024-01-30T14:06:39;3.05;;;0.20;;
47715;SDS011;33476;50.984;3.538;2024-01-30T14:09:05;3.40;;;0.20;;
47715;SDS011;33476;50.984;3.538;2024-01-30T14:11:31;6.80;;;0.50;;
47715;SDS011;33476;50.984;3.538;2024-01-30T14:13:57;3.25;;;0.30;;
47715;SDS011;33476;50.984;3.538;2024-01-30T14:16:22;2.22;;;0.22;;
47715;SDS011;33476;50.984;3.538;2024-01-30T14:18:49;2.97;;;0.30;;
47715;SDS011;33476;50.984;3.538;2024-01-30T14:21:14;4.60;;;0.20;;
47715;SDS011;33476;50.984;3.538;2024-01-30T14:23:40;7.15;;;0.35;;
47715;SDS011;33476;50.984;3.538;2024-01-30T14:26:05;6.70;;;0.30;;
47715;SDS011;33476;50.984;3.538;2024-01-30T14:28:31;8.27;;;0.20;;
47715;SDS011;33476;50.984;3.538;2024-01-30T14:30:56;4.43;;;0.40;;
47715;SDS011;33476;50.984;3.538;2024-01-30T14:33:22;6.57;;;0.40;;
47715;SDS011;33476;50.984;3.538;2024-01-30T14:35:47;6.07;;;0.50;;
47715;SDS011;33476;50.984;3.538;2024-01-30T14:38:13;2.88;;;0.40;;
47715;SDS011;33476;50.984;3.538;2024-01-30T14:40:38;3.42;;;0.47;;
47715;SDS011;33476;50.984;3.538;2024-01-30T14:43:05;4.88;;;0.60;;
47715;SDS011;33476;50.984;3.538;2024-01-30T14:45:30;6.93;;;0.90;;
47715;SDS011;33476;50.984;3.538;2024-01-30T14:47:59;6.75;;;0.85;;
47715;SDS011;33476;50.984;3.538;2024-01-30T14:50:25;4.47;;;0.80;;
47715;SDS011;33476;50.984;3.538;2024-01-30T14:52:51;4.38;;;1.00;;
47715;SDS011;33476;50.984;3.538;2024-01-30T14:55:16;11.25;;;1.17;;
47715;SDS011;33476;50.984;3.538;2024-01-30T14:57:42;4.40;;;0.73;;